createdAt,value
2023-03-18T00:01:30.107Z,4.71
2023-03-18T00:03:58.204Z,4.65
2023-03-18T00:06:27.208Z,4.74
2023-03-18T00:08:55.589Z,4.72
2023-03-18T00:11:25.558Z,4.60
2023-03-18T00:13:54.480Z,4.73
2023-03-18T00:16:22.746Z,4.70
2023-03-18T00:18:51.327Z,4.52
2023-03-18T00:21:19.635Z,4.55
2023-03-18T00:23:49.228Z,4.45
2023-03-18T00:26:17.535Z,4.46
2023-03-18T00:28:47.033Z,4.35
2023-03-18T00:31:15.684Z,4.41
2023-03-18T00:33:46.082Z,4.25
2023-03-18T00:36:16.563Z,4.27
2023-03-18T00:38:47.185Z,4.22
2023-03-18T00:41:15.974Z,4.14
2023-03-18T00:43:52.851Z,4.11
2023-03-18T00:46:25.787Z,4.08
2023-03-18T00:48:56.357Z,4.09
2023-03-18T00:51:28.486Z,4.11
2023-03-18T00:53:59.140Z,4.08
2023-03-18T00:56:30.954Z,4.02
2023-03-18T00:59:02.361Z,3.89
2023-03-18T01:01:32.569Z,4.09
2023-03-18T01:04:02.113Z,3.97
2023-03-18T01:06:34.080Z,4.03
2023-03-18T01:09:04.705Z,3.83
2023-03-18T01:11:33.451Z,3.88
2023-03-18T01:14:01.609Z,3.82
2023-03-18T01:16:31.470Z,3.85
2023-03-18T01:18:59.967Z,4.01
2023-03-18T01:21:29.181Z,3.99
2023-03-18T01:24:01.644Z,3.88
2023-03-18T01:26:31.652Z,3.85
2023-03-18T01:29:01.560Z,3.84
2023-03-18T01:31:34.739Z,3.89
2023-03-18T01:34:08.271Z,3.95
2023-03-18T01:36:52.554Z,4.01
2023-03-18T01:39:23.436Z,3.92
2023-03-18T01:41:52.346Z,3.94
2023-03-18T01:44:29.128Z,3.95
2023-03-18T01:46:59.478Z,4.02
2023-03-18T01:49:33.194Z,4.00
2023-03-18T01:52:07.248Z,3.89
2023-03-18T01:54:39.875Z,3.86
2023-03-18T01:57:08.671Z,3.91
2023-03-18T01:59:41.441Z,4.01
2023-03-18T02:02:14.236Z,4.05
2023-03-18T02:04:44.693Z,4.00
2023-03-18T02:07:18.814Z,4.01
2023-03-18T02:09:49.017Z,3.96
2023-03-18T02:12:23.141Z,4.02
2023-03-18T02:14:54.407Z,4.07
2023-03-18T02:17:27.213Z,4.02
2023-03-18T02:20:20.260Z,4.04
2023-03-18T02:22:52.134Z,4.00
2023-03-18T02:25:33.103Z,4.03
2023-03-18T02:28:07.836Z,3.90
2023-03-18T02:30:40.379Z,3.90
2023-03-18T02:33:12.012Z,3.94
2023-03-18T02:35:43.803Z,3.91
2023-03-18T02:38:12.312Z,3.86
2023-03-18T02:40:43.333Z,3.85
2023-03-18T02:43:22.384Z,3.77
2023-03-18T02:46:20.357Z,3.83
2023-03-18T02:48:50.953Z,3.82
2023-03-18T02:51:21.029Z,3.80
2023-03-18T02:53:50.797Z,3.86
2023-03-18T02:56:19.929Z,3.90
2023-03-18T02:58:51.708Z,3.95
2023-03-18T03:01:20.953Z,3.97
2023-03-18T03:03:50.134Z,3.92
2023-03-18T03:06:18.766Z,3.83
2023-03-18T03:08:47.720Z,3.75
2023-03-18T03:11:17.025Z,3.69
2023-03-18T03:13:46.792Z,3.59
2023-03-18T03:16:19.431Z,3.50
2023-03-18T03:18:47.808Z,3.50
2023-03-18T03:21:17.137Z,3.47
2023-03-18T03:23:46.153Z,3.51
2023-03-18T03:26:16.450Z,3.49
2023-03-18T03:28:45.363Z,3.46
2023-03-18T03:31:15.587Z,3.56
2023-03-18T03:33:46.028Z,3.47
2023-03-18T03:36:17.847Z,3.40
2023-03-18T03:38:47.122Z,3.42
2023-03-18T03:41:16.366Z,3.52
2023-03-18T03:43:45.654Z,3.56
2023-03-18T03:46:14.305Z,3.46
2023-03-18T03:48:42.719Z,3.47
2023-03-18T03:51:15.983Z,3.52
2023-03-18T03:53:46.348Z,3.47
2023-03-18T03:56:15.674Z,3.46
2023-03-18T03:58:43.874Z,3.47
2023-03-18T04:01:12.720Z,3.47
2023-03-18T04:03:41.572Z,3.38
2023-03-18T04:06:10.128Z,3.40
2023-03-18T04:08:46.330Z,3.33
2023-03-18T04:11:14.824Z,3.35
2023-03-18T04:13:44.068Z,3.36
2023-03-18T04:16:12.300Z,3.35
2023-03-18T04:18:40.432Z,3.27
2023-03-18T04:21:09.138Z,3.27
2023-03-18T04:23:42.397Z,3.23
2023-03-18T04:26:13.264Z,3.35
2023-03-18T04:28:41.911Z,3.23
2023-03-18T04:31:12.381Z,3.31
2023-03-18T04:33:40.969Z,3.27
2023-03-18T04:36:10.046Z,3.26
2023-03-18T04:38:39.455Z,3.24
2023-03-18T04:41:08.458Z,3.19
2023-03-18T04:43:38.036Z,3.29
2023-03-18T04:46:06.814Z,3.18
2023-03-18T04:48:36.312Z,3.20
2023-03-18T04:51:08.473Z,3.17
2023-03-18T04:53:37.892Z,3.20
2023-03-18T04:56:07.323Z,3.13
2023-03-18T04:58:45.829Z,3.18
2023-03-18T05:01:20.445Z,3.11
2023-03-18T05:03:50.423Z,3.11
2023-03-18T05:06:23.903Z,3.04
2023-03-18T05:08:57.241Z,3.19
2023-03-18T05:11:29.542Z,3.09
2023-03-18T05:14:02.640Z,3.14
2023-03-18T05:16:38.387Z,3.12
2023-03-18T05:19:06.703Z,3.00
2023-03-18T05:21:36.036Z,2.98
2023-03-18T05:24:04.787Z,2.92
2023-03-18T05:26:40.207Z,2.94
2023-03-18T05:29:11.078Z,3.02
2023-03-18T05:31:45.729Z,3.10
2023-03-18T05:34:14.217Z,3.09
2023-03-18T05:36:45.342Z,3.04
2023-03-18T05:39:13.935Z,3.07
2023-03-18T05:41:42.418Z,3.13
2023-03-18T05:44:15.926Z,3.29
2023-03-18T05:46:44.505Z,3.34
2023-03-18T05:49:20.115Z,3.35
2023-03-18T05:52:27.060Z,3.40
2023-03-18T05:54:58.229Z,3.35
2023-03-18T05:57:31.715Z,3.37
2023-03-18T06:00:10.244Z,3.38
2023-03-18T06:02:46.433Z,3.46
2023-03-18T06:05:16.196Z,3.64
2023-03-18T06:07:47.032Z,3.80
2023-03-18T06:10:15.868Z,3.91
2023-03-18T06:12:46.347Z,3.99
2023-03-18T06:15:16.036Z,4.07
2023-03-18T06:17:44.473Z,4.21
2023-03-18T06:20:15.891Z,4.48
2023-03-18T06:22:49.045Z,4.73
2023-03-18T06:25:19.852Z,4.90
2023-03-18T06:27:49.173Z,5.03
2023-03-18T06:30:21.631Z,5.22
2023-03-18T06:32:50.902Z,4.92
2023-03-18T06:35:19.385Z,4.98
2023-03-18T06:37:47.548Z,4.91
2023-03-18T06:40:16.042Z,4.91
2023-03-18T06:42:45.515Z,4.95
2023-03-18T06:45:22.514Z,4.91
2023-03-18T06:47:56.661Z,4.69
2023-03-18T06:50:26.167Z,4.67
2023-03-18T06:52:54.532Z,4.65
2023-03-18T06:55:29.455Z,4.55
2023-03-18T06:57:59.175Z,4.51
2023-03-18T07:00:36.385Z,4.49
2023-03-18T07:03:06.740Z,4.45
2023-03-18T07:05:35.760Z,4.60
2023-03-18T07:08:04.505Z,4.73
2023-03-18T07:10:32.965Z,4.84
2023-03-18T07:13:10.964Z,5.05
2023-03-18T07:15:43.743Z,5.45
2023-03-18T07:18:12.685Z,5.62
2023-03-18T07:20:41.954Z,6.02
2023-03-18T07:23:11.168Z,6.91
2023-03-18T07:25:39.828Z,7.89
2023-03-18T07:28:08.296Z,8.66
2023-03-18T07:30:36.633Z,9.07
2023-03-18T07:33:06.736Z,10.29
2023-03-18T07:35:35.776Z,11.67
2023-03-18T07:38:04.333Z,10.60
2023-03-18T07:40:32.547Z,10.51
2023-03-18T07:43:01.110Z,9.38
2023-03-18T07:45:30.275Z,8.83
2023-03-18T07:47:59.021Z,9.12
2023-03-18T07:50:28.774Z,10.47
2023-03-18T07:52:57.179Z,10.49
2023-03-18T07:55:25.597Z,10.81
2023-03-18T07:57:54.226Z,11.37
2023-03-18T08:00:23.420Z,11.86
2023-03-18T08:02:51.482Z,12.66
2023-03-18T08:06:10.328Z,10.97
2023-03-18T08:08:40.599Z,10.36
2023-03-18T08:11:11.359Z,10.66
2023-03-18T08:13:41.466Z,11.87
2023-03-18T08:16:10.202Z,11.52
2023-03-18T08:18:38.452Z,9.34
2023-03-18T08:21:07.910Z,9.44
2023-03-18T08:23:36.460Z,9.10
2023-03-18T08:26:06.383Z,9.27
2023-03-18T08:28:34.869Z,9.54
2023-03-18T08:31:03.569Z,10.58
2023-03-18T08:33:31.731Z,9.74
2023-03-18T08:36:00.498Z,9.62
2023-03-18T08:38:29.671Z,9.83
2023-03-18T08:40:58.394Z,11.00
2023-03-18T08:43:28.548Z,12.46
2023-03-18T08:45:57.779Z,12.50
2023-03-18T08:48:26.769Z,14.74
2023-03-18T08:50:55.373Z,14.69
2023-03-18T08:53:23.474Z,14.16
2023-03-18T08:55:51.968Z,13.34
2023-03-18T08:58:20.374Z,12.90
2023-03-18T09:00:50.613Z,11.69
2023-03-18T09:03:19.384Z,11.57
2023-03-18T09:05:49.275Z,10.95
2023-03-18T09:08:17.665Z,11.83
2023-03-18T09:10:46.472Z,13.25
2023-03-18T09:13:14.767Z,11.30
2023-03-18T09:15:43.428Z,10.65
2023-03-18T09:18:13.548Z,10.92
2023-03-18T09:20:42.422Z,11.84
2023-03-18T09:23:12.764Z,11.64
2023-03-18T09:25:42.847Z,10.95
2023-03-18T09:28:11.308Z,11.15
2023-03-18T09:30:39.945Z,11.21
2023-03-18T09:33:09.379Z,11.56
2023-03-18T09:35:39.913Z,13.06
2023-03-18T09:38:08.499Z,13.50
2023-03-18T09:40:39.089Z,13.35
2023-03-18T09:43:18.820Z,13.07
2023-03-18T09:46:00.077Z,12.66
2023-03-18T09:48:48.591Z,12.72
2023-03-18T09:51:34.992Z,12.12
2023-03-18T09:54:08.267Z,11.91
2023-03-18T09:56:39.456Z,12.90
2023-03-18T09:59:17.762Z,14.56
2023-03-18T10:01:48.611Z,14.11
2023-03-18T10:04:23.726Z,13.19
2023-03-18T10:06:58.762Z,12.36
2023-03-18T10:09:31.134Z,12.53
2023-03-18T10:12:05.986Z,13.12
2023-03-18T10:14:38.926Z,13.07
2023-03-18T10:17:17.958Z,12.86
2023-03-18T10:19:50.170Z,12.76
2023-03-18T10:22:35.795Z,12.60
2023-03-18T10:25:15.854Z,11.27
2023-03-18T10:27:54.934Z,10.65
2023-03-18T10:30:36.009Z,10.46
2023-03-18T10:33:14.461Z,10.53
2023-03-18T10:35:49.527Z,10.75
2023-03-18T10:38:25.553Z,10.97
2023-03-18T10:40:54.721Z,10.88
2023-03-18T10:43:26.551Z,11.09
2023-03-18T10:46:02.363Z,10.56
2023-03-18T10:48:34.790Z,10.53
2023-03-18T10:51:13.846Z,10.34
2023-03-18T10:53:48.069Z,10.52
2023-03-18T10:56:17.029Z,11.02
2023-03-18T10:58:46.292Z,10.69
2023-03-18T11:01:21.196Z,10.56
2023-03-18T11:03:54.701Z,10.79
2023-03-18T11:06:26.491Z,11.59
2023-03-18T11:09:07.003Z,11.51
2023-03-18T11:11:37.194Z,11.66
2023-03-18T11:14:06.945Z,11.97
2023-03-18T11:16:39.995Z,11.44
2023-03-18T11:19:22.800Z,11.29
2023-03-18T11:22:01.476Z,10.57
2023-03-18T11:24:39.728Z,10.46
2023-03-18T11:27:28.355Z,10.68
2023-03-18T11:29:59.996Z,10.81
2023-03-18T11:32:31.285Z,10.71
2023-03-18T11:35:01.833Z,10.67
2023-03-18T11:37:35.272Z,11.19
2023-03-18T11:40:35.948Z,11.08
2023-03-18T11:43:13.871Z,11.26
2023-03-18T11:45:47.406Z,11.28
2023-03-18T11:48:19.466Z,11.31
2023-03-18T11:51:02.348Z,11.02
2023-03-18T11:53:46.637Z,11.01
2023-03-18T11:56:25.261Z,10.62
2023-03-18T11:59:17.631Z,10.33
2023-03-18T12:01:57.897Z,10.61
2023-03-18T12:04:39.858Z,10.44
2023-03-18T12:07:30.521Z,10.63
2023-03-18T12:10:08.791Z,10.43
2023-03-18T12:12:55.996Z,10.22
2023-03-18T12:15:40.089Z,10.26
2023-03-18T12:18:18.002Z,10.46
2023-03-18T12:20:51.201Z,10.51
2023-03-18T12:23:50.275Z,10.45
2023-03-18T12:26:27.924Z,10.30
2023-03-18T12:29:18.800Z,10.55
2023-03-18T12:31:58.611Z,10.50
2023-03-18T12:34:44.717Z,10.50
2023-03-18T12:37:32.212Z,10.52
2023-03-18T12:40:15.467Z,10.83
2023-03-18T12:42:59.211Z,10.56
2023-03-18T12:45:35.539Z,10.57
2023-03-18T12:48:09.702Z,10.82
2023-03-18T12:50:41.550Z,10.94
2023-03-18T12:53:17.153Z,10.96
2023-03-18T12:55:49.469Z,10.77
2023-03-18T12:58:23.283Z,10.81
2023-03-18T13:00:58.781Z,10.97
2023-03-18T13:03:33.767Z,10.98
2023-03-18T13:06:06.199Z,10.90
2023-03-18T13:08:48.448Z,10.98
2023-03-18T13:11:38.620Z,10.75
2023-03-18T13:14:15.634Z,10.64
2023-03-18T13:16:45.260Z,10.73
2023-03-18T13:19:13.562Z,10.87
2023-03-18T13:21:45.105Z,10.59
2023-03-18T13:24:37.638Z,10.77
2023-03-18T13:27:39.309Z,10.74
2023-03-18T13:30:17.854Z,10.97
2023-03-18T13:33:21.851Z,11.79
2023-03-18T13:36:14.804Z,11.70
2023-03-18T13:39:08.480Z,11.85
2023-03-18T13:42:00.508Z,11.62
2023-03-18T13:44:41.201Z,11.00
2023-03-18T13:47:16.087Z,11.18
2023-03-18T13:49:45.830Z,10.99
2023-03-18T13:52:30.460Z,10.77
2023-03-18T13:55:03.770Z,10.76
2023-03-18T13:57:38.036Z,10.87
2023-03-18T14:00:23.724Z,11.05
2023-03-18T14:03:06.521Z,11.04
2023-03-18T14:05:41.765Z,11.22
2023-03-18T14:08:53.211Z,11.03
2023-03-18T14:11:50.479Z,10.96
2023-03-18T14:14:41.049Z,10.94
2023-03-18T14:17:25.210Z,10.81
2023-03-18T14:19:55.905Z,10.65
2023-03-18T14:22:30.570Z,10.37
2023-03-18T14:25:22.050Z,10.30
2023-03-18T14:27:54.965Z,10.40
2023-03-18T14:30:50.345Z,10.49
2023-03-18T14:33:36.388Z,10.29
2023-03-18T14:36:11.498Z,10.35
2023-03-18T14:38:47.422Z,10.78
2023-03-18T14:41:23.858Z,11.00
2023-03-18T14:44:21.520Z,11.22
2023-03-18T14:46:54.043Z,11.55
2023-03-18T14:49:36.462Z,11.72
2023-03-18T14:52:17.256Z,11.93
2023-03-18T14:54:46.439Z,11.77
2023-03-18T14:57:14.666Z,11.89
2023-03-18T14:59:44.630Z,12.40
2023-03-18T15:02:24.109Z,12.84
2023-03-18T15:04:55.465Z,12.67
2023-03-18T15:07:33.987Z,12.45
2023-03-18T15:10:06.117Z,12.55
2023-03-18T15:12:34.644Z,12.21
2023-03-18T15:15:05.134Z,12.48
2023-03-18T15:17:33.535Z,12.64
2023-03-18T15:20:02.015Z,12.46
2023-03-18T15:22:33.200Z,12.91
2023-03-18T15:25:04.611Z,12.45
2023-03-18T15:27:34.540Z,12.81
2023-03-18T15:30:07.965Z,12.34
2023-03-18T15:32:46.139Z,12.67
2023-03-18T15:35:18.838Z,12.68
2023-03-18T15:37:48.406Z,12.86
2023-03-18T15:40:36.398Z,11.87
2023-03-18T15:43:17.310Z,12.20
2023-03-18T15:45:53.640Z,12.82
2023-03-18T15:48:27.636Z,13.55
2023-03-18T15:50:58.324Z,13.22
2023-03-18T15:53:28.035Z,12.24
2023-03-18T15:55:58.012Z,11.89
2023-03-18T15:58:28.320Z,11.68
2023-03-18T16:00:58.642Z,11.43
2023-03-18T16:03:31.306Z,11.25
2023-03-18T16:06:00.400Z,11.22
2023-03-18T16:08:28.882Z,11.08
2023-03-18T16:10:59.583Z,10.75
2023-03-18T16:13:30.466Z,11.23
2023-03-18T16:16:01.407Z,10.78
2023-03-18T16:18:29.882Z,10.70
2023-03-18T16:20:57.908Z,10.44
2023-03-18T16:23:26.645Z,10.33
2023-03-18T16:25:56.745Z,10.22
2023-03-18T16:28:28.247Z,9.92
2023-03-18T16:30:57.777Z,10.03
2023-03-18T16:33:28.048Z,9.79
2023-03-18T16:35:59.451Z,9.65
2023-03-18T16:38:28.576Z,9.42
2023-03-18T16:40:57.597Z,9.19
2023-03-18T16:43:28.335Z,9.08
2023-03-18T16:46:01.088Z,8.98
2023-03-18T16:48:31.360Z,8.78
2023-03-18T16:51:02.580Z,8.66
2023-03-18T16:53:33.331Z,8.50
2023-03-18T16:56:04.550Z,8.40
2023-03-18T16:58:35.644Z,8.19
2023-03-18T17:01:06.261Z,7.94
2023-03-18T17:03:37.381Z,7.78
2023-03-18T17:06:07.072Z,7.49
2023-03-18T17:08:36.699Z,7.40
2023-03-18T17:11:05.692Z,7.41
2023-03-18T17:13:38.041Z,7.38
2023-03-18T17:16:07.446Z,7.36
2023-03-18T17:18:37.596Z,7.36
2023-03-18T17:21:07.111Z,7.35
2023-03-18T17:23:35.796Z,7.40
2023-03-18T17:26:04.846Z,7.27
2023-03-18T17:28:37.263Z,7.28
2023-03-18T17:31:07.633Z,7.19
2023-03-18T17:33:38.478Z,7.04
2023-03-18T17:36:08.649Z,7.01
2023-03-18T17:38:37.582Z,6.92
2023-03-18T17:41:14.039Z,6.89
2023-03-18T17:43:42.315Z,6.72
2023-03-18T17:46:10.775Z,6.65
2023-03-18T17:48:41.138Z,6.62
2023-03-18T17:51:16.813Z,6.47
2023-03-18T17:53:48.073Z,6.52
2023-03-18T17:56:18.593Z,6.58
2023-03-18T17:58:48.970Z,6.65
2023-03-18T18:01:19.613Z,6.56
2023-03-18T18:03:49.843Z,6.58
2023-03-18T18:06:23.317Z,6.70
2023-03-18T18:08:52.163Z,6.86
2023-03-18T18:11:22.507Z,6.90
2023-03-18T18:13:52.242Z,6.94
2023-03-18T18:16:21.655Z,6.98
2023-03-18T18:18:51.843Z,6.85
2023-03-18T18:21:24.732Z,6.95
2023-03-18T18:23:53.441Z,6.87
2023-03-18T18:26:22.887Z,6.92
2023-03-18T18:28:52.894Z,6.91
2023-03-18T18:31:22.824Z,6.90
2023-03-18T18:33:55.887Z,6.90
2023-03-18T18:36:28.152Z,6.72
2023-03-18T18:38:57.008Z,6.65
2023-03-18T18:41:26.003Z,6.57
2023-03-18T18:43:55.657Z,6.75
2023-03-18T18:46:26.564Z,6.77
2023-03-18T18:48:56.694Z,6.80
2023-03-18T18:51:26.588Z,6.92
2023-03-18T18:53:56.340Z,6.96
2023-03-18T18:56:34.285Z,6.93
2023-03-18T18:59:05.322Z,7.08
2023-03-18T19:01:33.594Z,7.12
2023-03-18T19:04:04.028Z,7.12
2023-03-18T19:06:33.608Z,7.17
2023-03-18T19:09:05.163Z,7.17
2023-03-18T19:11:34.778Z,7.13
2023-03-18T19:14:18.858Z,7.11
2023-03-18T19:16:48.309Z,7.21
2023-03-18T19:19:20.560Z,7.12
2023-03-18T19:21:49.740Z,7.11
2023-03-18T19:24:26.809Z,6.97
2023-03-18T19:26:56.843Z,6.91
2023-03-18T19:29:26.698Z,6.99
2023-03-18T19:31:55.428Z,7.18
2023-03-18T19:34:26.968Z,7.13
2023-03-18T19:36:57.117Z,7.19
2023-03-18T19:39:27.894Z,7.29
2023-03-18T19:41:56.761Z,7.29
2023-03-18T19:44:26.738Z,7.29
2023-03-18T19:46:56.483Z,7.30
2023-03-18T19:49:29.949Z,7.22
2023-03-18T19:51:58.930Z,7.25
2023-03-18T19:54:31.579Z,7.16
2023-03-18T19:57:03.752Z,7.19
2023-03-18T19:59:38.617Z,7.05
2023-03-18T20:02:19.556Z,7.14
2023-03-18T20:04:50.344Z,7.12
2023-03-18T20:07:20.762Z,6.96
2023-03-18T20:09:50.296Z,7.01
2023-03-18T20:12:25.815Z,7.00
2023-03-18T20:14:54.681Z,6.65
2023-03-18T20:17:34.416Z,6.34
2023-03-18T20:20:05.678Z,6.13
2023-03-18T20:22:37.657Z,5.98
2023-03-18T20:25:08.425Z,5.68
2023-03-18T20:27:36.427Z,5.45
2023-03-18T20:30:22.929Z,5.33
2023-03-18T20:32:52.357Z,5.25
2023-03-18T20:35:22.249Z,4.92
2023-03-18T20:37:50.565Z,4.68
2023-03-18T20:40:22.946Z,4.60
2023-03-18T20:42:52.779Z,4.57
2023-03-18T20:45:22.254Z,4.53
2023-03-18T20:47:51.732Z,4.68
2023-03-18T20:50:25.689Z,4.66
2023-03-18T20:52:54.054Z,4.61
2023-03-18T20:55:25.565Z,4.61
2023-03-18T20:57:55.035Z,4.62
2023-03-18T21:00:26.970Z,4.56
2023-03-18T21:02:57.670Z,4.36
2023-03-18T21:05:28.411Z,4.34
2023-03-18T21:07:56.727Z,4.18
2023-03-18T21:10:27.391Z,3.88
2023-03-18T21:12:56.209Z,3.68
2023-03-18T21:15:26.166Z,3.61
2023-03-18T21:17:55.079Z,3.52
2023-03-18T21:20:28.825Z,3.95
2023-03-18T21:22:57.537Z,3.80
2023-03-18T21:25:27.977Z,3.79
2023-03-18T21:27:56.673Z,3.73
2023-03-18T21:30:24.831Z,3.84
2023-03-18T21:32:53.219Z,3.85
2023-03-18T21:35:23.433Z,3.80
2023-03-18T21:37:53.893Z,3.90
2023-03-18T21:40:24.041Z,3.93
2023-03-18T21:42:52.675Z,3.89
2023-03-18T21:45:22.945Z,3.91
2023-03-18T21:47:52.704Z,3.92
2023-03-18T21:50:24.088Z,3.81
2023-03-18T21:52:54.680Z,3.77
2023-03-18T21:55:22.813Z,3.76
2023-03-18T21:57:50.993Z,3.75
2023-03-18T22:00:21.139Z,3.65
2023-03-18T22:02:50.088Z,3.68
2023-03-18T22:05:21.066Z,3.68
2023-03-18T22:07:50.752Z,3.90
2023-03-18T22:10:23.160Z,4.08
2023-03-18T22:12:51.689Z,4.01
2023-03-18T22:15:35.720Z,4.50
2023-03-18T22:18:04.782Z,4.57
2023-03-18T22:20:34.822Z,4.25
2023-03-18T22:23:03.183Z,4.09
2023-03-18T22:25:36.560Z,4.03
2023-03-18T22:28:05.840Z,4.01
2023-03-18T22:30:35.799Z,4.08
2023-03-18T22:33:06.673Z,3.92
2023-03-18T22:35:36.138Z,3.83
2023-03-18T22:38:04.375Z,3.87
2023-03-18T22:40:34.146Z,3.87
2023-03-18T22:43:02.915Z,3.91
2023-03-18T22:45:33.296Z,3.98
2023-03-18T22:48:03.908Z,4.11
2023-03-18T22:50:34.552Z,3.99
2023-03-18T22:53:06.788Z,3.83
2023-03-18T22:55:38.785Z,3.72
2023-03-18T22:58:07.425Z,3.80
2023-03-18T23:00:38.159Z,3.86
2023-03-18T23:03:12.935Z,3.91
2023-03-18T23:05:41.183Z,3.58
2023-03-18T23:08:09.889Z,3.43
2023-03-18T23:10:39.656Z,3.52
2023-03-18T23:13:14.456Z,3.88
2023-03-18T23:15:42.805Z,4.23
2023-03-18T23:18:15.453Z,4.38
2023-03-18T23:20:44.479Z,4.37
2023-03-18T23:23:13.208Z,4.41
2023-03-18T23:25:43.861Z,4.94
2023-03-18T23:28:12.165Z,4.90
2023-03-18T23:30:43.117Z,5.20
2023-03-18T23:33:11.539Z,5.34
2023-03-18T23:35:39.925Z,5.54
2023-03-18T23:38:08.113Z,5.64
2023-03-18T23:40:36.622Z,5.93
2023-03-18T23:43:06.666Z,6.02
2023-03-18T23:45:35.299Z,5.99
2023-03-18T23:48:04.094Z,5.90
2023-03-18T23:50:32.246Z,6.00
2023-03-18T23:53:00.971Z,5.91
2023-03-18T23:55:36.412Z,5.98
2023-03-18T23:58:06.367Z,6.01
